createdAt,value
2017-09-10T00:02:10.337Z,10.90
2017-09-10T00:04:37.860Z,9.43
2017-09-10T00:07:05.720Z,12.00
2017-09-10T00:09:33.264Z,9.50
2017-09-10T00:12:01.067Z,11.13
2017-09-10T00:14:28.567Z,10.13
2017-09-10T00:16:56.264Z,10.50
2017-09-10T00:19:24.048Z,13.80
2017-09-10T00:21:52.492Z,12.90
2017-09-10T00:24:20.196Z,12.70
2017-09-10T00:26:48.216Z,12.50
2017-09-10T00:29:15.717Z,11.73
2017-09-10T00:31:43.233Z,14.23
2017-09-10T00:34:10.900Z,11.93
2017-09-10T00:36:38.410Z,11.37
2017-09-10T00:39:05.912Z,18.73
2017-09-10T00:41:33.427Z,17.53
2017-09-10T00:44:01.253Z,12.23
2017-09-10T00:46:28.840Z,15.03
2017-09-10T00:48:56.598Z,15.23
2017-09-10T00:51:24.134Z,14.33
2017-09-10T00:53:51.645Z,19.10
2017-09-10T00:56:19.283Z,14.30
2017-09-10T00:58:47.047Z,16.10
2017-09-10T01:01:14.836Z,20.97
2017-09-10T01:03:42.352Z,16.33
2017-09-10T01:06:10.029Z,25.93
2017-09-10T01:08:37.791Z,18.87
2017-09-10T01:11:05.323Z,14.47
2017-09-10T01:13:32.848Z,18.70
2017-09-10T01:16:01.133Z,19.70
2017-09-10T01:18:28.658Z,18.40
2017-09-10T01:20:56.170Z,19.30
2017-09-10T01:23:23.687Z,18.87
2017-09-10T01:25:51.188Z,16.23
2017-09-10T01:28:18.977Z,21.77
2017-09-10T01:30:46.744Z,18.97
2017-09-10T01:33:14.504Z,25.83
2017-09-10T01:35:42.012Z,19.40
2017-09-10T01:38:09.727Z,23.67
2017-09-10T01:40:37.232Z,17.13
2017-09-10T01:43:04.745Z,15.17
2017-09-10T01:45:32.400Z,19.27
2017-09-10T01:47:59.908Z,18.03
2017-09-10T01:50:27.428Z,17.20
2017-09-10T01:52:55.059Z,15.57
2017-09-10T01:55:22.580Z,16.37
2017-09-10T01:57:50.267Z,25.63
2017-09-10T02:00:17.781Z,22.97
2017-09-10T02:02:45.492Z,16.70
2017-09-10T02:05:13.061Z,17.70
2017-09-10T02:07:41.201Z,21.20
2017-09-10T02:10:08.711Z,26.93
2017-09-10T02:12:36.224Z,16.07
2017-09-10T02:15:04.027Z,19.30
2017-09-10T02:17:31.532Z,18.00
2017-09-10T02:19:59.048Z,16.70
2017-09-10T02:22:26.577Z,26.47
2017-09-10T02:24:54.157Z,20.47
2017-09-10T02:27:21.923Z,15.30
2017-09-10T02:29:49.684Z,17.97
2017-09-10T02:32:17.448Z,19.83
2017-09-10T02:34:45.212Z,16.57
2017-09-10T02:37:12.978Z,16.77
2017-09-10T02:39:40.484Z,24.03
2017-09-10T02:42:08.080Z,16.40
2017-09-10T02:44:35.960Z,17.83
2017-09-10T02:47:03.480Z,14.63
2017-09-10T02:49:31.186Z,15.30
2017-09-10T02:51:58.904Z,17.90
2017-09-10T02:54:26.621Z,15.77
2017-09-10T02:56:54.172Z,17.80
2017-09-10T02:59:21.669Z,15.20
2017-09-10T03:01:49.353Z,14.77
2017-09-10T03:04:17.083Z,15.23
2017-09-10T03:06:44.917Z,22.87
2017-09-10T03:09:12.718Z,20.10
2017-09-10T03:11:40.436Z,17.60
2017-09-10T03:14:07.948Z,15.63
2017-09-10T03:16:35.466Z,17.83
2017-09-10T03:19:03.076Z,19.17
2017-09-10T03:21:30.597Z,19.60
2017-09-10T03:23:58.332Z,16.20
2017-09-10T03:26:25.855Z,20.50
2017-09-10T03:28:53.561Z,21.33
2017-09-10T03:31:21.064Z,16.70
2017-09-10T03:33:48.732Z,23.37
2017-09-10T03:36:16.251Z,15.70
2017-09-10T03:38:43.768Z,19.00
2017-09-10T03:41:11.425Z,15.07
2017-09-10T03:43:38.937Z,16.83
2017-09-10T03:46:06.450Z,15.03
2017-09-10T03:48:34.129Z,18.53
2017-09-10T03:51:02.058Z,17.87
2017-09-10T03:53:29.842Z,18.70
2017-09-10T03:55:57.376Z,15.70
2017-09-10T03:58:24.889Z,17.57
2017-09-10T04:00:52.394Z,19.90
2017-09-10T04:03:20.104Z,18.73
2017-09-10T04:05:47.606Z,18.73
2017-09-10T04:08:15.315Z,24.10
2017-09-10T04:10:43.076Z,17.73
2017-09-10T04:13:10.592Z,18.20
2017-09-10T04:15:38.119Z,20.27
2017-09-10T04:18:05.723Z,23.80
2017-09-10T04:20:33.248Z,21.20
2017-09-10T04:23:00.980Z,21.27
2017-09-10T04:25:28.492Z,20.43
2017-09-10T04:27:56.013Z,20.50
2017-09-10T04:30:23.531Z,20.53
2017-09-10T04:32:51.593Z,25.57
2017-09-10T04:35:19.156Z,22.37
2017-09-10T04:37:46.688Z,24.63
2017-09-10T04:40:14.414Z,18.63
2017-09-10T04:42:41.937Z,24.87
2017-09-10T04:45:09.448Z,22.30
2017-09-10T04:47:36.967Z,20.57
2017-09-10T04:50:04.480Z,20.30
2017-09-10T04:52:32.007Z,22.70
2017-09-10T04:54:59.515Z,19.30
2017-09-10T04:57:27.078Z,21.23
2017-09-10T04:59:54.571Z,24.63
2017-09-10T05:02:22.094Z,20.47
2017-09-10T05:04:49.884Z,24.87
2017-09-10T05:07:17.663Z,24.83
2017-09-10T05:09:45.390Z,20.00
2017-09-10T05:12:12.904Z,21.10
2017-09-10T05:14:40.423Z,29.73
2017-09-10T05:17:07.941Z,24.50
2017-09-10T05:19:35.516Z,19.67
2017-09-10T05:22:03.040Z,32.53
2017-09-10T05:24:30.768Z,23.70
2017-09-10T05:26:58.297Z,25.37
2017-09-10T05:29:25.986Z,23.47
2017-09-10T05:31:53.687Z,24.37
2017-09-10T05:34:21.199Z,25.47
2017-09-10T05:36:48.711Z,25.03
2017-09-10T05:39:16.475Z,21.67
2017-09-10T05:41:44.182Z,20.13
2017-09-10T05:44:11.797Z,18.93
2017-09-10T05:46:40.229Z,24.30
2017-09-10T05:49:07.796Z,23.33
2017-09-10T05:51:35.331Z,27.53
2017-09-10T05:54:02.849Z,20.10
2017-09-10T05:56:30.356Z,17.73
2017-09-10T05:58:57.928Z,22.40
2017-09-10T06:01:25.456Z,26.53
2017-09-10T06:03:52.973Z,18.63
2017-09-10T06:06:21.528Z,25.53
2017-09-10T06:08:49.657Z,23.90
2017-09-10T06:11:17.173Z,24.27
2017-09-10T06:13:44.687Z,26.23
2017-09-10T06:16:12.196Z,39.97
2017-09-10T06:18:39.716Z,26.00
2017-09-10T06:21:07.223Z,24.67
2017-09-10T06:23:34.744Z,22.97
2017-09-10T06:26:03.282Z,29.37
2017-09-10T06:28:30.803Z,21.63
2017-09-10T06:30:58.839Z,23.30
2017-09-10T06:33:26.354Z,23.77
2017-09-10T06:35:53.873Z,27.10
2017-09-10T06:38:21.516Z,32.07
2017-09-10T06:40:49.297Z,22.23
2017-09-10T06:43:16.816Z,27.67
2017-09-10T06:45:44.375Z,22.80
2017-09-10T06:48:11.869Z,26.53
2017-09-10T06:50:39.396Z,27.37
2017-09-10T06:53:06.904Z,26.17
2017-09-10T06:55:34.637Z,22.43
2017-09-10T06:58:02.401Z,22.10
2017-09-10T07:00:29.916Z,26.03
2017-09-10T07:02:57.425Z,25.23
2017-09-10T07:05:25.093Z,25.57
2017-09-10T07:07:52.608Z,25.30
2017-09-10T07:10:20.267Z,35.57
2017-09-10T07:12:47.776Z,22.07
2017-09-10T07:15:15.294Z,25.10
2017-09-10T07:17:42.948Z,28.80
2017-09-10T07:20:10.464Z,28.30
2017-09-10T07:22:37.979Z,25.00
2017-09-10T07:25:05.650Z,27.10
2017-09-10T07:27:33.155Z,23.57
2017-09-10T07:30:00.676Z,35.70
2017-09-10T07:32:28.336Z,22.93
2017-09-10T07:34:56.099Z,25.50
2017-09-10T07:37:24.478Z,30.17
2017-09-10T07:39:52.231Z,25.90
2017-09-10T07:42:19.859Z,33.40
2017-09-10T07:44:47.461Z,32.53
2017-09-10T07:47:14.997Z,39.67
2017-09-10T07:49:42.680Z,41.33
2017-09-10T07:52:10.439Z,30.27
2017-09-10T07:54:38.203Z,38.97
2017-09-10T07:57:05.717Z,36.90
2017-09-10T07:59:33.424Z,30.03
2017-09-10T08:02:01.190Z,31.33
2017-09-10T08:04:28.943Z,30.93
2017-09-10T08:06:56.704Z,38.03
2017-09-10T08:09:24.377Z,41.00
2017-09-10T08:11:52.105Z,38.20
2017-09-10T08:14:19.663Z,39.63
2017-09-10T08:16:47.178Z,32.43
2017-09-10T08:19:14.698Z,29.80
2017-09-10T08:21:42.208Z,37.67
2017-09-10T08:24:09.829Z,29.33
2017-09-10T08:26:37.600Z,30.80
2017-09-10T08:29:05.324Z,27.80
2017-09-10T08:31:32.844Z,51.20
2017-09-10T08:34:00.561Z,31.97
2017-09-10T08:36:28.366Z,33.97
2017-09-10T08:38:55.882Z,31.53
2017-09-10T08:41:23.451Z,35.63
2017-09-10T08:43:51.016Z,31.93
2017-09-10T08:46:18.788Z,33.40
2017-09-10T08:48:46.312Z,33.20
2017-09-10T08:51:13.938Z,25.57
2017-09-10T08:53:41.772Z,26.77
2017-09-10T08:56:09.484Z,27.87
2017-09-10T08:58:37.005Z,25.10
2017-09-10T09:01:04.524Z,26.53
2017-09-10T09:03:32.776Z,28.03
2017-09-10T09:06:00.292Z,26.50
2017-09-10T09:08:27.802Z,31.63
2017-09-10T09:10:55.504Z,21.67
2017-09-10T09:13:23.048Z,20.27
2017-09-10T09:15:50.545Z,24.97
2017-09-10T09:18:18.819Z,26.07
2017-09-10T09:20:46.332Z,25.30
2017-09-10T09:23:14.311Z,26.57
2017-09-10T09:25:41.820Z,29.97
2017-09-10T09:28:09.547Z,19.77
2017-09-10T09:30:37.067Z,22.80
2017-09-10T09:33:04.572Z,17.83
2017-09-10T09:35:32.856Z,35.43
2017-09-10T09:38:00.587Z,40.47
2017-09-10T09:40:28.101Z,20.20
2017-09-10T09:42:55.612Z,24.47
2017-09-10T09:45:23.141Z,20.00
2017-09-10T09:47:50.675Z,21.23
2017-09-10T09:50:18.256Z,18.47
2017-09-10T09:52:45.756Z,15.97
2017-09-10T09:55:14.320Z,14.53
2017-09-10T09:57:41.955Z,21.90
2017-09-10T10:00:09.577Z,15.87
2017-09-10T10:02:37.533Z,21.07
2017-09-10T10:05:05.061Z,22.30
2017-09-10T10:07:33.389Z,14.30
2017-09-10T10:10:01.200Z,14.30
2017-09-10T10:12:28.745Z,13.97
2017-09-10T10:14:56.413Z,17.10
2017-09-10T10:17:24.181Z,15.63
2017-09-10T10:19:51.688Z,15.00
2017-09-10T10:22:19.405Z,9.87
2017-09-10T10:24:46.904Z,12.83
2017-09-10T10:27:14.427Z,13.67
2017-09-10T10:29:41.957Z,15.67
2017-09-10T10:32:09.470Z,16.23
2017-09-10T10:34:36.980Z,19.40
2017-09-10T10:37:04.494Z,15.73
2017-09-10T10:39:32.217Z,17.37
2017-09-10T10:41:59.985Z,11.23
2017-09-10T10:44:27.747Z,13.40
2017-09-10T10:46:55.516Z,6.67
2017-09-10T10:49:23.280Z,17.23
2017-09-10T10:51:50.811Z,11.00
2017-09-10T10:54:18.340Z,14.60
2017-09-10T10:56:46.872Z,8.17
2017-09-10T10:59:14.384Z,14.30
2017-09-10T11:01:42.083Z,12.03
2017-09-10T11:04:09.975Z,10.87
2017-09-10T11:06:37.608Z,12.10
2017-09-10T11:09:05.373Z,14.97
2017-09-10T11:11:32.884Z,19.97
2017-09-10T11:14:00.416Z,12.30
2017-09-10T11:16:28.056Z,14.27
2017-09-10T11:18:55.568Z,14.53
2017-09-10T11:21:23.132Z,19.10
2017-09-10T11:23:50.738Z,15.80
2017-09-10T11:26:18.244Z,11.27
2017-09-10T11:28:45.944Z,12.37
2017-09-10T11:31:13.712Z,12.27
2017-09-10T11:33:41.484Z,20.87
2017-09-10T11:36:08.980Z,12.67
2017-09-10T11:38:36.488Z,12.60
2017-09-10T11:41:04.009Z,12.23
2017-09-10T11:43:31.515Z,15.20
2017-09-10T11:45:59.069Z,11.40
2017-09-10T11:48:26.600Z,12.70
2017-09-10T11:50:54.120Z,11.90
2017-09-10T11:53:22.663Z,9.30
2017-09-10T11:55:51.081Z,11.80
2017-09-10T11:58:18.584Z,18.60
2017-09-10T12:00:46.103Z,10.60
2017-09-10T12:03:14.373Z,13.03
2017-09-10T12:05:41.905Z,11.47
2017-09-10T12:08:09.554Z,11.20
2017-09-10T12:10:37.305Z,12.87
2017-09-10T12:13:04.813Z,6.43
2017-09-10T12:15:32.524Z,10.47
2017-09-10T12:18:00.056Z,7.77
2017-09-10T12:20:27.560Z,7.53
2017-09-10T12:22:55.212Z,10.50
2017-09-10T12:25:22.980Z,8.70
2017-09-10T12:27:50.481Z,12.43
2017-09-10T12:30:18.212Z,10.57
2017-09-10T12:32:45.966Z,9.03
2017-09-10T12:35:13.468Z,5.50
2017-09-10T12:37:41.500Z,11.17
2017-09-10T12:40:09.228Z,7.17
2017-09-10T12:42:37.012Z,6.83
2017-09-10T12:45:04.784Z,6.80
2017-09-10T12:47:32.537Z,9.27
2017-09-10T12:50:00.304Z,10.13
2017-09-10T12:52:27.816Z,5.73
2017-09-10T12:54:55.322Z,11.43
2017-09-10T12:57:22.980Z,10.83
2017-09-10T12:59:50.513Z,6.90
2017-09-10T13:02:18.021Z,9.40
2017-09-10T13:04:45.759Z,9.50
2017-09-10T13:07:13.428Z,8.47
2017-09-10T13:09:40.939Z,6.93
2017-09-10T13:12:08.465Z,9.30
2017-09-10T13:14:36.101Z,10.53
2017-09-10T13:17:03.614Z,10.87
2017-09-10T13:19:31.316Z,6.90
2017-09-10T13:21:58.819Z,5.03
2017-09-10T13:24:26.539Z,8.63
2017-09-10T13:26:54.048Z,7.47
2017-09-10T13:29:21.667Z,6.03
2017-09-10T13:31:49.183Z,5.50
2017-09-10T13:34:16.700Z,7.23
2017-09-10T13:36:44.204Z,11.50
2017-09-10T13:39:11.889Z,8.07
2017-09-10T13:41:39.395Z,7.27
2017-09-10T13:44:07.096Z,5.50
2017-09-10T13:46:34.880Z,7.90
2017-09-10T13:49:02.644Z,4.70
2017-09-10T13:51:30.238Z,9.40
2017-09-10T13:53:58.504Z,11.43
2017-09-10T13:56:26.178Z,9.10
2017-09-10T13:58:53.677Z,6.13
2017-09-10T14:01:21.636Z,5.70
2017-09-10T14:03:49.242Z,5.53
2017-09-10T14:06:16.777Z,8.30
2017-09-10T14:08:44.267Z,9.20
2017-09-10T14:11:11.776Z,7.00
2017-09-10T14:13:39.352Z,7.47
2017-09-10T14:16:07.116Z,7.47
2017-09-10T14:18:34.884Z,7.70
2017-09-10T14:21:02.421Z,10.50
2017-09-10T14:23:30.100Z,7.50
2017-09-10T14:25:58.612Z,4.30
2017-09-10T14:28:26.893Z,5.40
2017-09-10T14:30:54.397Z,6.10
2017-09-10T14:33:22.056Z,6.20
2017-09-10T14:35:49.557Z,7.93
2017-09-10T14:38:17.833Z,11.20
2017-09-10T14:40:45.345Z,9.53
2017-09-10T14:43:12.869Z,6.97
2017-09-10T14:45:40.377Z,6.80
2017-09-10T14:48:08.022Z,11.63
2017-09-10T14:50:35.801Z,12.40
2017-09-10T14:53:03.562Z,9.00
2017-09-10T14:55:31.068Z,6.03
2017-09-10T14:57:58.684Z,6.63
2017-09-10T15:00:26.196Z,4.33
2017-09-10T15:02:53.711Z,8.60
2017-09-10T15:05:21.237Z,12.00
2017-09-10T15:07:48.748Z,7.70
2017-09-10T15:10:16.261Z,5.53
2017-09-10T15:12:44.039Z,7.20
2017-09-10T15:15:11.540Z,7.47
2017-09-10T15:17:39.372Z,4.97
2017-09-10T15:20:06.873Z,4.80
2017-09-10T15:22:34.380Z,5.27
2017-09-10T15:25:02.656Z,8.27
2017-09-10T15:27:31.552Z,6.60
2017-09-10T15:29:59.405Z,6.17
2017-09-10T15:32:26.908Z,7.63
2017-09-10T15:34:54.617Z,10.73
2017-09-10T15:37:22.741Z,8.70
2017-09-10T15:39:50.460Z,8.20
2017-09-10T15:42:18.241Z,6.00
2017-09-10T15:44:45.744Z,8.40
2017-09-10T15:47:13.444Z,5.50
2017-09-10T15:49:40.977Z,4.80
2017-09-10T15:52:09.412Z,4.80
2017-09-10T15:54:37.045Z,7.53
2017-09-10T15:57:04.550Z,10.10
2017-09-10T15:59:32.208Z,10.83
2017-09-10T16:01:59.747Z,5.23
2017-09-10T16:04:27.484Z,11.23
2017-09-10T16:06:55.251Z,3.90
2017-09-10T16:09:22.751Z,6.60
2017-09-10T16:11:50.465Z,6.83
2017-09-10T16:14:18.003Z,5.03
2017-09-10T16:16:45.508Z,7.80
2017-09-10T16:19:13.047Z,8.43
2017-09-10T16:21:40.868Z,8.53
2017-09-10T16:24:08.449Z,8.87
2017-09-10T16:26:35.955Z,9.60
2017-09-10T16:29:03.463Z,5.67
2017-09-10T16:31:31.656Z,9.30
2017-09-10T16:33:59.407Z,9.87
2017-09-10T16:36:27.196Z,5.83
2017-09-10T16:38:54.700Z,6.90
2017-09-10T16:41:22.224Z,9.90
2017-09-10T16:43:49.839Z,7.13
2017-09-10T16:46:17.351Z,7.43
2017-09-10T16:48:45.691Z,8.30
2017-09-10T16:51:13.199Z,8.63
2017-09-10T16:53:40.882Z,7.00
2017-09-10T16:56:09.021Z,10.70
2017-09-10T16:58:36.541Z,8.63
2017-09-10T17:01:04.176Z,29.00
2017-09-10T17:03:31.684Z,7.70
2017-09-10T17:05:59.208Z,14.00
2017-09-10T17:08:26.892Z,15.23
2017-09-10T17:10:54.400Z,7.03
2017-09-10T17:13:21.907Z,8.90
2017-09-10T17:15:50.473Z,18.20
2017-09-10T17:18:18.180Z,8.33
2017-09-10T17:20:45.696Z,17.27
2017-09-10T17:23:13.476Z,10.70
2017-09-10T17:25:40.991Z,8.10
2017-09-10T17:28:08.689Z,7.80
2017-09-10T17:30:36.190Z,8.40
2017-09-10T17:33:03.705Z,11.63
2017-09-10T17:35:31.357Z,7.80
2017-09-10T17:37:59.141Z,8.13
2017-09-10T17:40:26.897Z,10.50
2017-09-10T17:42:54.661Z,7.73
2017-09-10T17:45:22.167Z,10.17
2017-09-10T17:47:49.849Z,5.43
2017-09-10T17:50:17.360Z,10.83
2017-09-10T17:52:45.008Z,10.50
2017-09-10T17:55:12.541Z,15.53
2017-09-10T17:57:40.046Z,11.00
2017-09-10T18:00:07.552Z,15.50
2017-09-10T18:02:35.056Z,10.50
2017-09-10T18:05:02.660Z,10.77
2017-09-10T18:07:30.444Z,12.40
2017-09-10T18:09:58.208Z,16.60
2017-09-10T18:12:25.988Z,10.23
2017-09-10T18:14:53.610Z,16.57
2017-09-10T18:17:21.204Z,14.70
2017-09-10T18:19:48.724Z,11.60
2017-09-10T18:22:16.285Z,10.87
2017-09-10T18:24:43.786Z,15.27
2017-09-10T18:27:14.419Z,17.70
2017-09-10T18:29:42.166Z,14.30
2017-09-10T18:32:09.675Z,14.87
2017-09-10T18:34:37.184Z,9.10
2017-09-10T18:37:04.868Z,13.13
2017-09-10T18:39:32.388Z,13.13
2017-09-10T18:42:00.032Z,9.63
2017-09-10T18:44:27.657Z,13.50
2017-09-10T18:46:56.200Z,19.53
2017-09-10T18:49:23.710Z,10.57
2017-09-10T18:51:51.434Z,15.03
2017-09-10T18:54:18.960Z,11.13
2017-09-10T18:56:46.469Z,9.97
2017-09-10T18:59:14.756Z,21.33
2017-09-10T19:01:42.947Z,10.20
2017-09-10T19:04:10.517Z,10.77
2017-09-10T19:06:38.323Z,12.47
2017-09-10T19:09:05.875Z,26.10
2017-09-10T19:11:33.385Z,24.83
2017-09-10T19:14:00.986Z,22.93
2017-09-10T19:16:28.738Z,9.20
2017-09-10T19:18:56.249Z,11.27
2017-09-10T19:21:23.764Z,13.27
2017-09-10T19:23:51.284Z,16.27
2017-09-10T19:26:18.792Z,9.53
2017-09-10T19:28:46.312Z,10.90
2017-09-10T19:31:13.840Z,4.70
2017-09-10T19:33:42.185Z,9.93
2017-09-10T19:36:09.705Z,17.90
2017-09-10T19:38:37.394Z,12.63
2017-09-10T19:41:04.916Z,12.13
2017-09-10T19:43:32.621Z,7.20
2017-09-10T19:46:01.362Z,9.17
2017-09-10T19:48:28.864Z,15.70
2017-09-10T19:50:56.399Z,9.03
2017-09-10T19:53:23.908Z,12.17
2017-09-10T19:55:52.452Z,10.63
2017-09-10T19:58:20.065Z,25.60
2017-09-10T20:00:47.714Z,16.90
2017-09-10T20:03:15.238Z,40.83
2017-09-10T20:05:42.795Z,9.27
2017-09-10T20:08:10.319Z,17.47
2017-09-10T20:10:38.019Z,13.37
2017-09-10T20:13:05.522Z,11.83
2017-09-10T20:15:33.040Z,13.90
2017-09-10T20:18:00.672Z,20.53
2017-09-10T20:20:28.177Z,17.33
2017-09-10T20:22:55.702Z,10.13
2017-09-10T20:25:23.239Z,10.23
2017-09-10T20:27:50.826Z,13.60
2017-09-10T20:30:18.331Z,7.90
2017-09-10T20:32:46.017Z,8.23
2017-09-10T20:35:13.528Z,8.87
2017-09-10T20:37:41.053Z,7.50
2017-09-10T20:40:08.696Z,11.83
2017-09-10T20:42:36.483Z,4.70
2017-09-10T20:45:03.985Z,7.80
2017-09-10T20:47:31.496Z,11.90
2017-09-10T20:49:59.130Z,7.47
2017-09-10T20:52:26.627Z,5.07
2017-09-10T20:54:54.339Z,10.63
2017-09-10T20:57:21.847Z,13.70
2017-09-10T20:59:49.396Z,13.27
2017-09-10T21:02:17.083Z,7.80
2017-09-10T21:04:44.591Z,3.37
2017-09-10T21:07:12.096Z,6.67
2017-09-10T21:09:39.709Z,9.17
2017-09-10T21:12:07.213Z,7.97
2017-09-10T21:14:34.723Z,16.50
2017-09-10T21:17:03.136Z,7.80
2017-09-10T21:19:30.808Z,6.07
2017-09-10T21:21:58.315Z,6.17
2017-09-10T21:24:25.808Z,7.80
2017-09-10T21:26:53.315Z,6.70
2017-09-10T21:29:20.882Z,6.97
2017-09-10T21:31:48.420Z,5.77
2017-09-10T21:34:16.135Z,15.77
2017-09-10T21:36:43.684Z,15.23
2017-09-10T21:39:11.230Z,4.47
2017-09-10T21:41:38.736Z,4.73
2017-09-10T21:44:07.084Z,8.23
2017-09-10T21:46:34.625Z,5.10
2017-09-10T21:49:02.120Z,9.27
2017-09-10T21:51:29.863Z,9.70
2017-09-10T21:53:57.481Z,6.83
2017-09-10T21:56:25.766Z,7.43
2017-09-10T21:58:53.440Z,9.10
2017-09-10T22:01:20.948Z,6.00
2017-09-10T22:03:48.660Z,6.63
2017-09-10T22:06:16.373Z,3.57
2017-09-10T22:08:43.887Z,10.47
2017-09-10T22:11:11.668Z,11.17
2017-09-10T22:13:39.175Z,4.70
2017-09-10T22:16:06.712Z,8.60
2017-09-10T22:18:34.225Z,10.33
2017-09-10T22:21:01.804Z,9.97
2017-09-10T22:23:29.583Z,4.33
2017-09-10T22:25:57.124Z,5.23
2017-09-10T22:28:24.821Z,3.07
2017-09-10T22:31:21.138Z,3.90
2017-09-10T22:33:48.653Z,3.67
2017-09-10T22:36:16.448Z,4.37
2017-09-10T22:38:44.004Z,3.70
2017-09-10T22:41:11.564Z,5.87
2017-09-10T22:43:39.092Z,11.20
2017-09-10T22:46:06.606Z,4.43
2017-09-10T22:48:34.128Z,6.93
2017-09-10T22:51:01.720Z,4.20
2017-09-10T22:53:29.226Z,33.13
2017-09-10T22:55:56.912Z,6.20
2017-09-10T22:58:24.417Z,10.23
2017-09-10T23:00:51.952Z,11.43
2017-09-10T23:03:19.494Z,19.70
2017-09-10T23:05:47.016Z,16.93
2017-09-10T23:08:15.464Z,24.17
2017-09-10T23:10:43.013Z,10.60
2017-09-10T23:13:10.656Z,13.70
2017-09-10T23:15:38.178Z,9.90
2017-09-10T23:18:05.688Z,6.40
2017-09-10T23:20:33.196Z,9.90
2017-09-10T23:23:00.691Z,13.63
2017-09-10T23:25:28.208Z,5.73
2017-09-10T23:27:55.704Z,5.17
2017-09-10T23:30:23.221Z,2.83
2017-09-10T23:32:51.497Z,2.70
2017-09-10T23:35:19.021Z,8.40
2017-09-10T23:37:47.361Z,12.00
2017-09-10T23:40:14.862Z,5.20
2017-09-10T23:42:42.379Z,5.07
2017-09-10T23:45:09.907Z,6.20
2017-09-10T23:47:37.542Z,12.30
2017-09-10T23:50:05.261Z,3.57
2017-09-10T23:52:33.027Z,5.63
2017-09-10T23:55:00.584Z,2.60
2017-09-10T23:57:28.134Z,7.00
2017-09-10T23:59:55.630Z,3.10
